sensor_id;sensor_type;location;lat;lon;timestamp;temperature;humidity
1021;DHT22;499;42.648;23.270;2023-04-02T00:01:24;7.70;26.40
1021;DHT22;499;42.648;23.270;2023-04-02T00:04:15;7.60;26.30
1021;DHT22;499;42.648;23.270;2023-04-02T00:06:48;7.70;26.50
1021;DHT22;499;42.648;23.270;2023-04-02T00:09:30;7.70;26.50
1021;DHT22;499;42.648;23.270;2023-04-02T00:11:58;7.60;26.30
1021;DHT22;499;42.648;23.270;2023-04-02T00:14:45;7.50;26.90
1021;DHT22;499;42.648;23.270;2023-04-02T00:17:14;7.50;26.60
1021;DHT22;499;42.648;23.270;2023-04-02T00:19:45;7.60;26.80
1021;DHT22;499;42.648;23.270;2023-04-02T00:22:17;7.60;26.80
1021;DHT22;499;42.648;23.270;2023-04-02T00:24:49;7.60;26.30
1021;DHT22;499;42.648;23.270;2023-04-02T00:27:16;7.60;26.30
1021;DHT22;499;42.648;23.270;2023-04-02T00:29:48;7.60;26.30
1021;DHT22;499;42.648;23.270;2023-04-02T00:32:20;7.60;25.90
1021;DHT22;499;42.648;23.270;2023-04-02T00:34:48;7.70;25.20
1021;DHT22;499;42.648;23.270;2023-04-02T00:37:18;7.80;25.20
1021;DHT22;499;42.648;23.270;2023-04-02T00:39:50;7.80;24.80
1021;DHT22;499;42.648;23.270;2023-04-02T00:42:19;7.90;24.90
1021;DHT22;499;42.648;23.270;2023-04-02T00:44:48;7.90;25.30
1021;DHT22;499;42.648;23.270;2023-04-02T00:47:20;7.80;25.10
1021;DHT22;499;42.648;23.270;2023-04-02T00:49:53;7.80;25.30
1021;DHT22;499;42.648;23.270;2023-04-02T00:52:25;7.80;24.80
1021;DHT22;499;42.648;23.270;2023-04-02T00:54:59;7.80;24.70
1021;DHT22;499;42.648;23.270;2023-04-02T00:57:27;7.80;24.70
1021;DHT22;499;42.648;23.270;2023-04-02T00:59:56;7.80;24.60
1021;DHT22;499;42.648;23.270;2023-04-02T01:02:29;7.80;24.60
1021;DHT22;499;42.648;23.270;2023-04-02T01:04:58;7.80;24.60
1021;DHT22;499;42.648;23.270;2023-04-02T01:07:46;7.80;24.70
1021;DHT22;499;42.648;23.270;2023-04-02T01:10:29;7.80;24.70
1021;DHT22;499;42.648;23.270;2023-04-02T01:13:07;7.80;24.70
1021;DHT22;499;42.648;23.270;2023-04-02T01:15:40;7.90;25.00
1021;DHT22;499;42.648;23.270;2023-04-02T01:18:18;7.80;25.10
1021;DHT22;499;42.648;23.270;2023-04-02T01:24:03;7.80;25.10
1021;DHT22;499;42.648;23.270;2023-04-02T01:26:52;7.80;25.40
1021;DHT22;499;42.648;23.270;2023-04-02T01:29:25;7.80;25.50
1021;DHT22;499;42.648;23.270;2023-04-02T01:31:55;7.80;24.50
1021;DHT22;499;42.648;23.270;2023-04-02T01:34:24;7.90;24.50
1021;DHT22;499;42.648;23.270;2023-04-02T01:37:19;7.90;24.20
1021;DHT22;499;42.648;23.270;2023-04-02T01:42:48;8.00;24.30
1021;DHT22;499;42.648;23.270;2023-04-02T01:45:21;7.90;24.10
1021;DHT22;499;42.648;23.270;2023-04-02T01:47:49;7.90;24.40
1021;DHT22;499;42.648;23.270;2023-04-02T01:50:24;7.90;24.30
1021;DHT22;499;42.648;23.270;2023-04-02T01:52:57;7.90;24.30
1021;DHT22;499;42.648;23.270;2023-04-02T01:55:31;7.90;24.40
1021;DHT22;499;42.648;23.270;2023-04-02T01:57:59;7.90;24.30
1021;DHT22;499;42.648;23.270;2023-04-02T02:00:29;7.90;24.00
1021;DHT22;499;42.648;23.270;2023-04-02T02:02:58;7.90;23.80
1021;DHT22;499;42.648;23.270;2023-04-02T02:05:26;8.00;23.90
1021;DHT22;499;42.648;23.270;2023-04-02T02:07:54;8.00;23.70
1021;DHT22;499;42.648;23.270;2023-04-02T02:10:24;8.00;23.50
1021;DHT22;499;42.648;23.270;2023-04-02T02:12:52;8.00;23.80
1021;DHT22;499;42.648;23.270;2023-04-02T02:15:21;7.90;23.90
1021;DHT22;499;42.648;23.270;2023-04-02T02:17:54;7.90;24.00
1021;DHT22;499;42.648;23.270;2023-04-02T02:20:23;7.90;24.30
1021;DHT22;499;42.648;23.270;2023-04-02T02:22:52;7.90;24.60
1021;DHT22;499;42.648;23.270;2023-04-02T02:25:24;7.90;23.50
1021;DHT22;499;42.648;23.270;2023-04-02T02:27:57;7.90;23.90
1021;DHT22;499;42.648;23.270;2023-04-02T02:30:28;7.90;23.30
1021;DHT22;499;42.648;23.270;2023-04-02T02:33:01;7.90;22.90
1021;DHT22;499;42.648;23.270;2023-04-02T02:35:32;7.90;23.40
1021;DHT22;499;42.648;23.270;2023-04-02T02:38:24;7.90;23.70
1021;DHT22;499;42.648;23.270;2023-04-02T02:40:56;7.90;23.70
1021;DHT22;499;42.648;23.270;2023-04-02T02:43:24;7.90;23.60
1021;DHT22;499;42.648;23.270;2023-04-02T02:45:54;7.90;24.30
1021;DHT22;499;42.648;23.270;2023-04-02T02:48:29;7.80;24.30
1021;DHT22;499;42.648;23.270;2023-04-02T02:51:01;7.80;24.40
1021;DHT22;499;42.648;23.270;2023-04-02T02:53:30;7.70;24.60
1021;DHT22;499;42.648;23.270;2023-04-02T02:55:58;7.80;24.40
1021;DHT22;499;42.648;23.270;2023-04-02T02:58:29;7.80;24.40
1021;DHT22;499;42.648;23.270;2023-04-02T03:00:57;7.80;23.70
1021;DHT22;499;42.648;23.270;2023-04-02T03:03:28;7.90;23.10
1021;DHT22;499;42.648;23.270;2023-04-02T03:05:58;7.90;23.10
1021;DHT22;499;42.648;23.270;2023-04-02T03:08:32;7.90;23.70
1021;DHT22;499;42.648;23.270;2023-04-02T03:11:03;7.90;23.90
1021;DHT22;499;42.648;23.270;2023-04-02T03:13:33;7.90;23.60
1021;DHT22;499;42.648;23.270;2023-04-02T03:16:05;7.90;23.70
1021;DHT22;499;42.648;23.270;2023-04-02T03:18:40;7.90;23.70
1021;DHT22;499;42.648;23.270;2023-04-02T03:21:16;7.90;23.70
1021;DHT22;499;42.648;23.270;2023-04-02T03:23:47;7.90;23.30
1021;DHT22;499;42.648;23.270;2023-04-02T03:26:18;7.90;23.30
1021;DHT22;499;42.648;23.270;2023-04-02T03:28:50;7.90;23.50
1021;DHT22;499;42.648;23.270;2023-04-02T03:31:24;7.90;24.10
1021;DHT22;499;42.648;23.270;2023-04-02T03:33:57;7.90;23.90
1021;DHT22;499;42.648;23.270;2023-04-02T03:36:28;7.90;23.80
1021;DHT22;499;42.648;23.270;2023-04-02T03:39:03;7.90;23.90
1021;DHT22;499;42.648;23.270;2023-04-02T03:41:38;8.00;23.80
1021;DHT22;499;42.648;23.270;2023-04-02T03:44:20;8.00;23.50
1021;DHT22;499;42.648;23.270;2023-04-02T03:46:52;8.00;23.70
1021;DHT22;499;42.648;23.270;2023-04-02T03:49:30;7.90;23.90
1021;DHT22;499;42.648;23.270;2023-04-02T03:52:02;7.90;23.90
1021;DHT22;499;42.648;23.270;2023-04-02T03:54:30;7.80;23.80
1021;DHT22;499;42.648;23.270;2023-04-02T03:56:58;7.90;24.00
1021;DHT22;499;42.648;23.270;2023-04-02T03:59:33;8.00;23.80
1021;DHT22;499;42.648;23.270;2023-04-02T04:02:10;7.80;23.80
1021;DHT22;499;42.648;23.270;2023-04-02T04:04:42;7.80;24.20
1021;DHT22;499;42.648;23.270;2023-04-02T04:07:15;7.70;24.40
1021;DHT22;499;42.648;23.270;2023-04-02T04:09:46;7.60;24.60
1021;DHT22;499;42.648;23.270;2023-04-02T04:12:26;7.60;24.60
1021;DHT22;499;42.648;23.270;2023-04-02T04:14:58;7.60;24.70
1021;DHT22;499;42.648;23.270;2023-04-02T04:17:32;7.50;24.50
1021;DHT22;499;42.648;23.270;2023-04-02T04:20:13;7.50;24.90
1021;DHT22;499;42.648;23.270;2023-04-02T04:22:41;7.40;24.80
1021;DHT22;499;42.648;23.270;2023-04-02T04:25:18;7.40;25.20
1021;DHT22;499;42.648;23.270;2023-04-02T04:27:55;7.50;24.40
1021;DHT22;499;42.648;23.270;2023-04-02T04:30:35;7.60;24.20
1021;DHT22;499;42.648;23.270;2023-04-02T04:33:12;7.60;24.60
1021;DHT22;499;42.648;23.270;2023-04-02T04:35:47;7.60;24.60
1021;DHT22;499;42.648;23.270;2023-04-02T04:38:18;7.60;25.00
1021;DHT22;499;42.648;23.270;2023-04-02T04:40:55;7.50;24.90
1021;DHT22;499;42.648;23.270;2023-04-02T04:43:29;7.50;24.90
1021;DHT22;499;42.648;23.270;2023-04-02T04:46:00;7.50;24.70
1021;DHT22;499;42.648;23.270;2023-04-02T04:48:33;7.60;24.50
1021;DHT22;499;42.648;23.270;2023-04-02T04:51:05;7.70;24.30
1021;DHT22;499;42.648;23.270;2023-04-02T04:53:43;7.70;24.10
1021;DHT22;499;42.648;23.270;2023-04-02T04:56:11;7.80;24.10
1021;DHT22;499;42.648;23.270;2023-04-02T04:58:43;8.00;23.60
1021;DHT22;499;42.648;23.270;2023-04-02T05:01:14;8.10;22.90
1021;DHT22;499;42.648;23.270;2023-04-02T05:03:47;8.20;22.90
1021;DHT22;499;42.648;23.270;2023-04-02T05:06:23;8.40;23.00
1021;DHT22;499;42.648;23.270;2023-04-02T05:08:54;8.50;22.60
1021;DHT22;499;42.648;23.270;2023-04-02T05:11:25;8.50;23.10
1021;DHT22;499;42.648;23.270;2023-04-02T05:13:56;8.60;23.10
1021;DHT22;499;42.648;23.270;2023-04-02T05:16:27;8.70;22.70
1021;DHT22;499;42.648;23.270;2023-04-02T05:19:02;8.70;22.40
1021;DHT22;499;42.648;23.270;2023-04-02T05:21:37;8.80;22.20
1021;DHT22;499;42.648;23.270;2023-04-02T05:24:41;8.90;22.10
1021;DHT22;499;42.648;23.270;2023-04-02T05:27:20;9.00;21.80
1021;DHT22;499;42.648;23.270;2023-04-02T05:29:53;9.00;21.60
1021;DHT22;499;42.648;23.270;2023-04-02T05:32:25;9.20;21.70
1021;DHT22;499;42.648;23.270;2023-04-02T05:34:55;9.20;21.20
1021;DHT22;499;42.648;23.270;2023-04-02T05:37:27;9.30;21.70
1021;DHT22;499;42.648;23.270;2023-04-02T05:39:57;9.30;21.20
1021;DHT22;499;42.648;23.270;2023-04-02T05:42:27;9.40;21.40
1021;DHT22;499;42.648;23.270;2023-04-02T05:45:02;9.60;21.30
1021;DHT22;499;42.648;23.270;2023-04-02T05:47:32;9.70;20.60
1021;DHT22;499;42.648;23.270;2023-04-02T05:50:18;9.70;20.00
1021;DHT22;499;42.648;23.270;2023-04-02T05:52:52;9.80;20.60
1021;DHT22;499;42.648;23.270;2023-04-02T05:55:33;9.90;20.10
1021;DHT22;499;42.648;23.270;2023-04-02T05:58:05;9.90;20.10
1021;DHT22;499;42.648;23.270;2023-04-02T06:00:59;10.00;19.40
1021;DHT22;499;42.648;23.270;2023-04-02T06:03:33;10.20;20.40
1021;DHT22;499;42.648;23.270;2023-04-02T06:06:06;10.20;19.50
1021;DHT22;499;42.648;23.270;2023-04-02T06:08:43;10.30;19.60
1021;DHT22;499;42.648;23.270;2023-04-02T06:11:19;10.30;19.60
1021;DHT22;499;42.648;23.270;2023-04-02T06:13:47;10.30;19.60
1021;DHT22;499;42.648;23.270;2023-04-02T06:16:15;10.40;19.30
1021;DHT22;499;42.648;23.270;2023-04-02T06:18:42;10.40;19.70
1021;DHT22;499;42.648;23.270;2023-04-02T06:21:11;10.50;19.70
1021;DHT22;499;42.648;23.270;2023-04-02T06:23:44;10.40;20.10
1021;DHT22;499;42.648;23.270;2023-04-02T06:26:18;10.40;19.70
1021;DHT22;499;42.648;23.270;2023-04-02T06:28:47;10.40;19.70
1021;DHT22;499;42.648;23.270;2023-04-02T06:31:22;10.40;19.70
1021;DHT22;499;42.648;23.270;2023-04-02T06:33:51;10.60;19.10
1021;DHT22;499;42.648;23.270;2023-04-02T06:36:22;10.60;17.60
1021;DHT22;499;42.648;23.270;2023-04-02T06:38:51;10.60;18.60
1021;DHT22;499;42.648;23.270;2023-04-02T06:41:23;10.50;18.80
1021;DHT22;499;42.648;23.270;2023-04-02T06:43:52;10.40;19.20
1021;DHT22;499;42.648;23.270;2023-04-02T06:46:25;10.50;19.20
1021;DHT22;499;42.648;23.270;2023-04-02T06:48:59;10.50;18.10
1021;DHT22;499;42.648;23.270;2023-04-02T06:51:28;10.50;18.80
1021;DHT22;499;42.648;23.270;2023-04-02T06:53:58;10.50;18.20
1021;DHT22;499;42.648;23.270;2023-04-02T06:56:37;10.40;18.40
1021;DHT22;499;42.648;23.270;2023-04-02T06:59:06;10.60;19.00
1021;DHT22;499;42.648;23.270;2023-04-02T07:01:36;10.60;18.10
1021;DHT22;499;42.648;23.270;2023-04-02T07:04:04;10.50;18.30
1021;DHT22;499;42.648;23.270;2023-04-02T07:06:31;10.60;18.90
1021;DHT22;499;42.648;23.270;2023-04-02T07:09:00;10.70;18.10
1021;DHT22;499;42.648;23.270;2023-04-02T07:11:27;10.70;18.20
1021;DHT22;499;42.648;23.270;2023-04-02T07:13:54;10.70;17.80
1021;DHT22;499;42.648;23.270;2023-04-02T07:16:23;10.60;17.90
1021;DHT22;499;42.648;23.270;2023-04-02T07:18:51;10.50;17.40
1021;DHT22;499;42.648;23.270;2023-04-02T07:21:19;10.40;16.90
1021;DHT22;499;42.648;23.270;2023-04-02T07:23:47;10.50;17.90
1021;DHT22;499;42.648;23.270;2023-04-02T07:26:17;10.70;17.20
1021;DHT22;499;42.648;23.270;2023-04-02T07:28:45;10.90;16.70
1021;DHT22;499;42.648;23.270;2023-04-02T07:31:15;10.90;16.10
1021;DHT22;499;42.648;23.270;2023-04-02T07:33:42;11.00;16.70
1021;DHT22;499;42.648;23.270;2023-04-02T07:36:13;11.10;16.20
1021;DHT22;499;42.648;23.270;2023-04-02T07:38:40;11.10;16.90
1021;DHT22;499;42.648;23.270;2023-04-02T07:41:07;11.20;16.30
1021;DHT22;499;42.648;23.270;2023-04-02T07:43:35;11.30;16.30
1021;DHT22;499;42.648;23.270;2023-04-02T07:46:03;11.30;15.90
1021;DHT22;499;42.648;23.270;2023-04-02T07:48:30;11.30;16.10
1021;DHT22;499;42.648;23.270;2023-04-02T07:50:58;11.30;16.30
1021;DHT22;499;42.648;23.270;2023-04-02T07:53:29;11.40;15.70
1021;DHT22;499;42.648;23.270;2023-04-02T07:55:57;11.40;16.20
1021;DHT22;499;42.648;23.270;2023-04-02T07:58:25;11.40;15.50
1021;DHT22;499;42.648;23.270;2023-04-02T08:00:54;11.50;15.30
1021;DHT22;499;42.648;23.270;2023-04-02T08:03:21;11.90;15.70
1021;DHT22;499;42.648;23.270;2023-04-02T08:05:50;12.10;15.40
1021;DHT22;499;42.648;23.270;2023-04-02T08:08:17;12.30;14.90
1021;DHT22;499;42.648;23.270;2023-04-02T08:10:44;12.20;14.50
1021;DHT22;499;42.648;23.270;2023-04-02T08:13:11;12.40;14.80
1021;DHT22;499;42.648;23.270;2023-04-02T08:15:39;12.70;14.50
1021;DHT22;499;42.648;23.270;2023-04-02T08:18:07;12.90;13.50
1021;DHT22;499;42.648;23.270;2023-04-02T08:20:34;13.00;13.50
1021;DHT22;499;42.648;23.270;2023-04-02T08:23:02;12.90;13.80
1021;DHT22;499;42.648;23.270;2023-04-02T08:25:31;12.90;13.90
1021;DHT22;499;42.648;23.270;2023-04-02T08:27:58;13.20;13.60
1021;DHT22;499;42.648;23.270;2023-04-02T08:30:26;13.30;12.80
1021;DHT22;499;42.648;23.270;2023-04-02T08:32:53;13.40;14.30
1021;DHT22;499;42.648;23.270;2023-04-02T08:35:21;13.20;13.60
1021;DHT22;499;42.648;23.270;2023-04-02T08:37:49;13.10;13.50
1021;DHT22;499;42.648;23.270;2023-04-02T08:40:21;12.90;13.40
1021;DHT22;499;42.648;23.270;2023-04-02T08:43:12;12.90;13.40
1021;DHT22;499;42.648;23.270;2023-04-02T08:45:55;12.70;13.30
1021;DHT22;499;42.648;23.270;2023-04-02T08:48:26;12.80;14.10
1021;DHT22;499;42.648;23.270;2023-04-02T08:50:57;12.90;13.40
1021;DHT22;499;42.648;23.270;2023-04-02T08:53:27;13.00;13.00
1021;DHT22;499;42.648;23.270;2023-04-02T08:55:57;12.70;13.30
1021;DHT22;499;42.648;23.270;2023-04-02T08:58:36;13.10;13.20
1021;DHT22;499;42.648;23.270;2023-04-02T09:01:06;13.10;12.90
1021;DHT22;499;42.648;23.270;2023-04-02T09:03:38;13.10;12.40
1021;DHT22;499;42.648;23.270;2023-04-02T09:06:10;13.10;13.00
1021;DHT22;499;42.648;23.270;2023-04-02T09:08:39;13.10;12.10
1021;DHT22;499;42.648;23.270;2023-04-02T09:11:12;13.30;13.20
1021;DHT22;499;42.648;23.270;2023-04-02T09:13:44;13.40;11.40
1021;DHT22;499;42.648;23.270;2023-04-02T09:16:14;13.50;12.20
1021;DHT22;499;42.648;23.270;2023-04-02T09:18:43;13.60;11.20
1021;DHT22;499;42.648;23.270;2023-04-02T09:21:29;13.70;10.30
1021;DHT22;499;42.648;23.270;2023-04-02T09:23:59;13.60;9.90
1021;DHT22;499;42.648;23.270;2023-04-02T09:26:28;13.40;10.30
1021;DHT22;499;42.648;23.270;2023-04-02T09:29:01;13.40;11.00
1021;DHT22;499;42.648;23.270;2023-04-02T09:31:33;13.80;11.60
1021;DHT22;499;42.648;23.270;2023-04-02T09:34:28;13.90;10.40
1021;DHT22;499;42.648;23.270;2023-04-02T09:37:06;14.20;10.00
1021;DHT22;499;42.648;23.270;2023-04-02T09:39:33;14.20;10.30
1021;DHT22;499;42.648;23.270;2023-04-02T09:42:05;14.40;10.40
1021;DHT22;499;42.648;23.270;2023-04-02T09:44:33;14.30;10.30
1021;DHT22;499;42.648;23.270;2023-04-02T09:47:02;14.40;10.40
1021;DHT22;499;42.648;23.270;2023-04-02T09:49:30;14.30;10.80
1021;DHT22;499;42.648;23.270;2023-04-02T09:52:19;14.20;11.10
1021;DHT22;499;42.648;23.270;2023-04-02T09:55:15;14.50;9.60
1021;DHT22;499;42.648;23.270;2023-04-02T09:57:44;14.40;7.60
1021;DHT22;499;42.648;23.270;2023-04-02T10:00:16;14.10;8.30
1021;DHT22;499;42.648;23.270;2023-04-02T10:02:45;14.20;8.50
1021;DHT22;499;42.648;23.270;2023-04-02T10:05:18;13.90;8.80
1021;DHT22;499;42.648;23.270;2023-04-02T10:07:49;14.30;9.10
1021;DHT22;499;42.648;23.270;2023-04-02T10:10:20;14.50;8.90
1021;DHT22;499;42.648;23.270;2023-04-02T10:12:52;14.60;8.80
1021;DHT22;499;42.648;23.270;2023-04-02T10:15:26;14.60;8.00
1021;DHT22;499;42.648;23.270;2023-04-02T10:18:02;14.60;9.10
1021;DHT22;499;42.648;23.270;2023-04-02T10:20:33;14.50;8.00
1021;DHT22;499;42.648;23.270;2023-04-02T10:23:03;14.70;8.30
1021;DHT22;499;42.648;23.270;2023-04-02T10:25:35;14.90;7.80
1021;DHT22;499;42.648;23.270;2023-04-02T10:28:11;14.90;8.30
1021;DHT22;499;42.648;23.270;2023-04-02T10:30:53;14.90;8.90
1021;DHT22;499;42.648;23.270;2023-04-02T10:33:27;15.20;8.30
1021;DHT22;499;42.648;23.270;2023-04-02T10:36:01;15.00;7.70
1021;DHT22;499;42.648;23.270;2023-04-02T10:38:42;15.00;8.90
1021;DHT22;499;42.648;23.270;2023-04-02T10:41:24;15.30;6.80
1021;DHT22;499;42.648;23.270;2023-04-02T10:47:03;15.20;7.30
1021;DHT22;499;42.648;23.270;2023-04-02T10:49:40;15.40;7.40
1021;DHT22;499;42.648;23.270;2023-04-02T10:52:10;15.30;7.10
1021;DHT22;499;42.648;23.270;2023-04-02T10:54:44;15.00;8.40
1021;DHT22;499;42.648;23.270;2023-04-02T10:57:22;15.10;8.30
1021;DHT22;499;42.648;23.270;2023-04-02T10:59:54;15.20;9.90
1021;DHT22;499;42.648;23.270;2023-04-02T11:02:32;14.90;10.40
1021;DHT22;499;42.648;23.270;2023-04-02T11:05:05;14.50;11.40
1021;DHT22;499;42.648;23.270;2023-04-02T11:07:42;14.20;11.70
1021;DHT22;499;42.648;23.270;2023-04-02T11:10:14;14.50;11.70
1021;DHT22;499;42.648;23.270;2023-04-02T11:12:50;14.50;11.70
1021;DHT22;499;42.648;23.270;2023-04-02T11:15:19;14.50;12.10
1021;DHT22;499;42.648;23.270;2023-04-02T11:17:46;14.30;12.40
1021;DHT22;499;42.648;23.270;2023-04-02T11:23:35;14.20;12.20
1021;DHT22;499;42.648;23.270;2023-04-02T11:26:30;14.10;12.70
1021;DHT22;499;42.648;23.270;2023-04-02T11:29:05;13.80;12.80
1021;DHT22;499;42.648;23.270;2023-04-02T11:31:34;13.80;12.50
1021;DHT22;499;42.648;23.270;2023-04-02T11:34:01;14.00;13.10
1021;DHT22;499;42.648;23.270;2023-04-02T11:36:59;13.90;12.70
1021;DHT22;499;42.648;23.270;2023-04-02T11:39:50;14.00;11.70
1021;DHT22;499;42.648;23.270;2023-04-02T11:42:29;14.10;11.20
1021;DHT22;499;42.648;23.270;2023-04-02T11:45:00;14.20;11.40
1021;DHT22;499;42.648;23.270;2023-04-02T11:47:28;14.10;11.70
1021;DHT22;499;42.648;23.270;2023-04-02T11:50:03;14.20;10.90
1021;DHT22;499;42.648;23.270;2023-04-02T11:52:37;14.10;10.90
1021;DHT22;499;42.648;23.270;2023-04-02T11:55:23;14.00;11.00
1021;DHT22;499;42.648;23.270;2023-04-02T12:01:22;14.40;10.50
1021;DHT22;499;42.648;23.270;2023-04-02T12:07:05;14.60;10.30
1021;DHT22;499;42.648;23.270;2023-04-02T12:09:42;14.70;10.60
1021;DHT22;499;42.648;23.270;2023-04-02T12:12:25;14.90;10.30
1021;DHT22;499;42.648;23.270;2023-04-02T12:14:54;14.70;10.30
1021;DHT22;499;42.648;23.270;2023-04-02T12:17:28;14.70;10.60
1021;DHT22;499;42.648;23.270;2023-04-02T12:19:56;14.60;10.60
1021;DHT22;499;42.648;23.270;2023-04-02T12:22:26;14.60;10.80
1021;DHT22;499;42.648;23.270;2023-04-02T12:24:55;14.50;10.80
1021;DHT22;499;42.648;23.270;2023-04-02T12:27:26;14.40;10.40
1021;DHT22;499;42.648;23.270;2023-04-02T12:29:54;14.40;10.70
1021;DHT22;499;42.648;23.270;2023-04-02T12:32:28;14.40;10.40
1021;DHT22;499;42.648;23.270;2023-04-02T12:35:02;14.30;10.30
1021;DHT22;499;42.648;23.270;2023-04-02T12:37:29;14.60;11.40
1021;DHT22;499;42.648;23.270;2023-04-02T12:39:59;14.90;9.90
1021;DHT22;499;42.648;23.270;2023-04-02T12:42:28;14.80;9.40
1021;DHT22;499;42.648;23.270;2023-04-02T12:44:56;14.80;8.70
1021;DHT22;499;42.648;23.270;2023-04-02T12:47:24;14.60;8.70
1021;DHT22;499;42.648;23.270;2023-04-02T12:49:53;14.40;9.70
1021;DHT22;499;42.648;23.270;2023-04-02T12:52:22;14.40;9.80
1021;DHT22;499;42.648;23.270;2023-04-02T12:54:55;14.50;9.60
1021;DHT22;499;42.648;23.270;2023-04-02T12:57:34;14.60;9.30
1021;DHT22;499;42.648;23.270;2023-04-02T13:00:31;14.40;8.70
1021;DHT22;499;42.648;23.270;2023-04-02T13:03:01;14.70;8.90
1021;DHT22;499;42.648;23.270;2023-04-02T13:05:38;15.10;9.60
1021;DHT22;499;42.648;23.270;2023-04-02T13:08:15;15.00;7.90
1021;DHT22;499;42.648;23.270;2023-04-02T13:10:44;15.10;8.00
1021;DHT22;499;42.648;23.270;2023-04-02T13:13:16;15.20;8.70
1021;DHT22;499;42.648;23.270;2023-04-02T13:15:44;14.90;8.60
1021;DHT22;499;42.648;23.270;2023-04-02T13:18:20;15.00;8.70
1021;DHT22;499;42.648;23.270;2023-04-02T13:20:55;14.90;8.30
1021;DHT22;499;42.648;23.270;2023-04-02T13:23:34;15.00;8.20
1021;DHT22;499;42.648;23.270;2023-04-02T13:26:14;14.90;8.30
1021;DHT22;499;42.648;23.270;2023-04-02T13:28:42;14.70;8.40
1021;DHT22;499;42.648;23.270;2023-04-02T13:31:14;14.70;8.10
1021;DHT22;499;42.648;23.270;2023-04-02T13:33:42;14.50;8.10
1021;DHT22;499;42.648;23.270;2023-04-02T13:36:12;14.40;8.70
1021;DHT22;499;42.648;23.270;2023-04-02T13:38:39;14.30;8.50
1021;DHT22;499;42.648;23.270;2023-04-02T13:41:15;14.20;8.40
1021;DHT22;499;42.648;23.270;2023-04-02T13:43:43;14.20;9.20
1021;DHT22;499;42.648;23.270;2023-04-02T13:46:16;14.10;9.20
1021;DHT22;499;42.648;23.270;2023-04-02T13:48:43;14.10;9.00
1021;DHT22;499;42.648;23.270;2023-04-02T13:51:14;14.20;8.20
1021;DHT22;499;42.648;23.270;2023-04-02T13:53:42;14.30;8.50
1021;DHT22;499;42.648;23.270;2023-04-02T13:56:09;14.30;8.10
1021;DHT22;499;42.648;23.270;2023-04-02T13:58:36;14.50;7.70
1021;DHT22;499;42.648;23.270;2023-04-02T14:01:04;14.60;7.70
1021;DHT22;499;42.648;23.270;2023-04-02T14:03:31;14.50;7.10
1021;DHT22;499;42.648;23.270;2023-04-02T14:06:04;14.60;7.30
1021;DHT22;499;42.648;23.270;2023-04-02T14:08:44;14.60;7.20
1021;DHT22;499;42.648;23.270;2023-04-02T14:11:25;14.70;6.80
1021;DHT22;499;42.648;23.270;2023-04-02T14:14:04;14.70;6.50
1021;DHT22;499;42.648;23.270;2023-04-02T14:16:47;14.90;7.10
1021;DHT22;499;42.648;23.270;2023-04-02T14:19:27;14.90;6.90
1021;DHT22;499;42.648;23.270;2023-04-02T14:22:07;14.80;7.40
1021;DHT22;499;42.648;23.270;2023-04-02T14:24:46;14.60;7.00
1021;DHT22;499;42.648;23.270;2023-04-02T14:27:26;14.70;7.60
1021;DHT22;499;42.648;23.270;2023-04-02T14:30:00;14.70;8.10
1021;DHT22;499;42.648;23.270;2023-04-02T14:32:34;14.70;7.90
1021;DHT22;499;42.648;23.270;2023-04-02T14:35:09;14.60;7.80
1021;DHT22;499;42.648;23.270;2023-04-02T14:37:46;14.60;7.30
1021;DHT22;499;42.648;23.270;2023-04-02T14:40:24;14.60;7.30
1021;DHT22;499;42.648;23.270;2023-04-02T14:42:55;14.40;7.40
1021;DHT22;499;42.648;23.270;2023-04-02T14:45:34;14.20;7.60
1021;DHT22;499;42.648;23.270;2023-04-02T14:48:15;14.10;7.90
1021;DHT22;499;42.648;23.270;2023-04-02T14:50:46;14.00;8.30
1021;DHT22;499;42.648;23.270;2023-04-02T14:53:18;13.90;8.10
1021;DHT22;499;42.648;23.270;2023-04-02T14:55:51;13.80;8.50
1021;DHT22;499;42.648;23.270;2023-04-02T14:58:22;13.80;8.10
1021;DHT22;499;42.648;23.270;2023-04-02T15:00:54;13.90;8.00
1021;DHT22;499;42.648;23.270;2023-04-02T15:03:24;13.90;8.20
1021;DHT22;499;42.648;23.270;2023-04-02T15:05:55;14.10;8.20
1021;DHT22;499;42.648;23.270;2023-04-02T15:08:25;14.10;7.90
1021;DHT22;499;42.648;23.270;2023-04-02T15:11:00;14.10;7.90
1021;DHT22;499;42.648;23.270;2023-04-02T15:13:33;14.00;7.80
1021;DHT22;499;42.648;23.270;2023-04-02T15:16:08;14.10;7.80
1021;DHT22;499;42.648;23.270;2023-04-02T15:18:36;14.10;8.10
1021;DHT22;499;42.648;23.270;2023-04-02T15:21:22;14.10;7.00
1021;DHT22;499;42.648;23.270;2023-04-02T15:24:00;14.00;6.90
1021;DHT22;499;42.648;23.270;2023-04-02T15:26:35;14.00;7.30
1021;DHT22;499;42.648;23.270;2023-04-02T15:29:10;14.00;7.70
1021;DHT22;499;42.648;23.270;2023-04-02T15:31:41;14.00;7.60
1021;DHT22;499;42.648;23.270;2023-04-02T15:34:21;14.00;7.30
1021;DHT22;499;42.648;23.270;2023-04-02T15:37:06;13.80;7.50
1021;DHT22;499;42.648;23.270;2023-04-02T15:39:42;13.80;8.40
1021;DHT22;499;42.648;23.270;2023-04-02T15:42:18;13.80;7.80
1021;DHT22;499;42.648;23.270;2023-04-02T15:47:42;13.70;7.60
1021;DHT22;499;42.648;23.270;2023-04-02T15:50:29;13.70;8.00
1021;DHT22;499;42.648;23.270;2023-04-02T15:53:08;13.60;8.20
1021;DHT22;499;42.648;23.270;2023-04-02T15:55:42;13.40;8.80
1021;DHT22;499;42.648;23.270;2023-04-02T15:58:22;13.30;9.90
1021;DHT22;499;42.648;23.270;2023-04-02T16:00:55;13.20;10.50
1021;DHT22;499;42.648;23.270;2023-04-02T16:03:43;13.20;10.30
1021;DHT22;499;42.648;23.270;2023-04-02T16:06:23;13.30;10.00
1021;DHT22;499;42.648;23.270;2023-04-02T16:09:06;13.10;10.30
1021;DHT22;499;42.648;23.270;2023-04-02T16:11:38;13.00;10.80
1021;DHT22;499;42.648;23.270;2023-04-02T16:14:17;13.00;11.20
1021;DHT22;499;42.648;23.270;2023-04-02T16:16:49;12.90;11.40
1021;DHT22;499;42.648;23.270;2023-04-02T16:19:21;12.90;12.30
1021;DHT22;499;42.648;23.270;2023-04-02T16:21:57;12.70;12.70
1021;DHT22;499;42.648;23.270;2023-04-02T16:24:26;12.70;12.70
1021;DHT22;499;42.648;23.270;2023-04-02T16:26:57;12.60;13.20
1021;DHT22;499;42.648;23.270;2023-04-02T16:29:41;12.40;13.10
1021;DHT22;499;42.648;23.270;2023-04-02T16:32:24;12.20;13.00
1021;DHT22;499;42.648;23.270;2023-04-02T16:34:58;11.90;13.20
1021;DHT22;499;42.648;23.270;2023-04-02T16:37:33;11.80;13.70
1021;DHT22;499;42.648;23.270;2023-04-02T16:40:11;11.90;13.40
1021;DHT22;499;42.648;23.270;2023-04-02T16:42:48;11.80;13.40
1021;DHT22;499;42.648;23.270;2023-04-02T16:45:28;11.60;14.00
1021;DHT22;499;42.648;23.270;2023-04-02T16:48:06;11.50;13.90
1021;DHT22;499;42.648;23.270;2023-04-02T16:50:42;11.50;14.60
1021;DHT22;499;42.648;23.270;2023-04-02T16:53:21;11.30;15.50
1021;DHT22;499;42.648;23.270;2023-04-02T16:56:04;11.20;14.90
1021;DHT22;499;42.648;23.270;2023-04-02T16:58:41;11.10;15.30
1021;DHT22;499;42.648;23.270;2023-04-02T17:01:17;11.00;15.40
1021;DHT22;499;42.648;23.270;2023-04-02T17:03:55;11.00;14.80
1021;DHT22;499;42.648;23.270;2023-04-02T17:06:34;11.00;14.10
1021;DHT22;499;42.648;23.270;2023-04-02T17:09:06;10.90;14.60
1021;DHT22;499;42.648;23.270;2023-04-02T17:11:39;10.80;14.00
1021;DHT22;499;42.648;23.270;2023-04-02T17:14:14;10.80;13.40